Time;durP1;ratioP1;P1;durP2;ratioP2;P2;SDS_P1;SDS_P2;PMS_P1;PMS_P2;Temp;Humidity;BMP_temperature;BMP_pressure;BME280_temperature;BME280_humidity;BME280_pressure;Samples;Min_cycle;Max_cycle;Signal;HPM_P1;HPM_P2
2022/01/29 00:00:00;;;;;;;252.73;69.50;;;6.50;99.90;;;;;;5118551;28;20506;-78
2022/01/29 00:02:28;;;;;;;168.40;60.27;;;6.50;99.90;;;;;;5117223;28;20439;-78
2022/01/29 00:04:57;;;;;;;290.37;77.23;;;6.50;99.90;;;;;;5121253;28;20451;-78
2022/01/29 00:07:25;;;;;;;190.37;70.87;;;6.50;99.90;;;;;;5125587;27;20597;-78
2022/01/29 00:10:00;;;;;;;224.50;62.90;;;6.50;99.90;;;;;;5142656;27;20450;-79
2022/01/29 00:12:31;;;;;;;232.17;68.97;;;6.60;99.90;;;;;;5144263;27;20418;-78
2022/01/29 00:15:00;;;;;;;256.67;65.70;;;6.60;99.90;;;;;;5145385;27;20765;-79
2022/01/29 00:17:28;;;;;;;371.63;89.37;;;6.60;99.90;;;;;;5144355;27;20458;-79
2022/01/29 00:19:56;;;;;;;223.77;69.77;;;6.60;99.90;;;;;;5142497;27;20458;-79
2022/01/29 00:22:25;;;;;;;254.33;73.80;;;6.60;99.90;;;;;;5141263;27;20534;-79
2022/01/29 00:24:56;;;;;;;403.10;74.80;;;6.60;99.90;;;;;;5141029;27;20442;-79
2022/01/29 00:27:26;;;;;;;211.13;73.87;;;6.60;99.90;;;;;;5123855;27;20470;-78
2022/01/29 00:29:56;;;;;;;273.23;75.27;;;6.60;99.90;;;;;;5138398;27;20801;-78
2022/01/29 00:32:26;;;;;;;298.10;78.27;;;6.70;99.90;;;;;;5141419;27;20438;-78
2022/01/29 00:34:56;;;;;;;337.67;84.97;;;6.70;99.90;;;;;;5142204;27;20432;-78
2022/01/29 00:37:24;;;;;;;388.27;82.07;;;6.70;99.90;;;;;;5122359;27;20459;-78
2022/01/29 00:39:52;;;;;;;218.80;78.07;;;6.70;99.90;;;;;;5118176;28;21035;-78
2022/01/29 00:42:20;;;;;;;464.43;99.20;;;6.70;99.90;;;;;;5116322;28;20443;-78
2022/01/29 00:44:49;;;;;;;263.80;76.33;;;6.70;99.90;;;;;;5116075;28;20453;-78
2022/01/29 00:47:18;;;;;;;268.80;90.83;;;6.80;99.90;;;;;;5126272;27;20467;-80
2022/01/29 00:49:47;;;;;;;369.03;81.20;;;6.70;99.90;;;;;;5136508;27;20447;-78
2022/01/29 00:52:15;;;;;;;295.53;99.60;;;6.80;99.90;;;;;;5137682;27;20470;-78
2022/01/29 00:54:45;;;;;;;342.73;88.40;;;6.80;99.90;;;;;;5140557;27;20484;-78
2022/01/29 00:57:13;;;;;;;283.77;82.27;;;6.80;99.90;;;;;;5121059;27;20479;-78
2022/01/29 00:59:42;;;;;;;274.90;81.87;;;6.80;99.90;;;;;;5117410;28;20488;-78
2022/01/29 01:02:11;;;;;;;316.50;84.47;;;6.80;99.90;;;;;;5117569;28;20439;-78
2022/01/29 01:04:40;;;;;;;427.33;86.03;;;6.80;99.90;;;;;;5118091;28;20455;-78
2022/01/29 01:07:11;;;;;;;164.50;65.00;;;6.80;99.90;;;;;;5119342;28;20452;-78
2022/01/29 01:09:39;;;;;;;276.30;87.70;;;6.80;99.90;;;;;;5117946;28;20435;-78
2022/01/29 01:12:08;;;;;;;343.33;93.17;;;6.80;99.90;;;;;;5126702;27;20883;-79
2022/01/29 01:14:38;;;;;;;191.33;67.63;;;6.80;99.90;;;;;;5136496;27;20820;-78
2022/01/29 01:17:07;;;;;;;244.23;81.63;;;6.80;99.90;;;;;;5120682;27;20845;-77
2022/01/29 01:19:35;;;;;;;319.60;86.13;;;6.80;99.90;;;;;;5118858;28;20489;-78
2022/01/29 01:22:05;;;;;;;238.87;79.17;;;6.80;99.90;;;;;;5120276;28;20435;-79
2022/01/29 01:24:35;;;;;;;324.87;79.30;;;6.80;99.90;;;;;;5120942;28;20884;-80
2022/01/29 01:27:04;;;;;;;306.17;90.40;;;6.80;99.90;;;;;;5123002;27;20887;-79
2022/01/29 01:29:32;;;;;;;348.30;93.93;;;6.80;99.90;;;;;;5142193;27;20447;-79
2022/01/29 01:32:01;;;;;;;269.97;77.57;;;6.80;99.90;;;;;;5140848;27;20472;-80
2022/01/29 01:34:33;;;;;;;199.23;71.47;;;6.80;99.90;;;;;;5138838;27;20537;-78
2022/01/29 01:37:08;;;;;;;246.47;72.13;;;6.80;99.90;;;;;;5138269;27;20450;-78
2022/01/29 01:39:39;;;;;;;224.27;67.93;;;6.80;99.90;;;;;;5132051;27;20518;-78
2022/01/29 01:42:08;;;;;;;283.47;87.13;;;6.80;99.90;;;;;;5124804;27;20464;-78
2022/01/29 01:44:38;;;;;;;280.60;89.00;;;6.80;99.90;;;;;;5118498;28;20534;-79
2022/01/29 01:47:07;;;;;;;207.33;77.37;;;6.80;99.90;;;;;;5120234;28;21038;-78
2022/01/29 01:49:36;;;;;;;213.03;74.83;;;6.80;99.90;;;;;;5118478;28;20477;-78
2022/01/29 01:52:06;;;;;;;240.30;72.93;;;6.80;99.90;;;;;;5118990;28;20487;-79
2022/01/29 01:54:34;;;;;;;277.13;84.97;;;6.80;99.90;;;;;;5116416;28;20479;-78
2022/01/29 01:57:04;;;;;;;315.60;79.70;;;6.80;99.90;;;;;;5128422;27;20829;-78
2022/01/29 01:59:33;;;;;;;195.03;73.53;;;6.80;99.90;;;;;;5138377;27;20500;-79
2022/01/29 02:02:03;;;;;;;293.90;80.07;;;6.80;99.90;;;;;;5139323;27;20817;-79
2022/01/29 02:04:33;;;;;;;267.67;83.23;;;6.80;99.90;;;;;;5138696;27;20434;-78
2022/01/29 02:07:02;;;;;;;244.93;75.50;;;6.80;99.90;;;;;;5126148;27;21068;-79
2022/01/29 02:09:32;;;;;;;267.23;76.13;;;6.80;99.90;;;;;;5125220;28;20477;-79
2022/01/29 02:12:04;;;;;;;251.73;86.80;;;6.80;99.90;;;;;;5124165;28;20860;-79
2022/01/29 02:14:34;;;;;;;205.47;74.80;;;6.80;99.90;;;;;;5126323;27;20490;-78
2022/01/29 02:17:04;;;;;;;334.30;87.57;;;6.80;99.90;;;;;;5145436;27;20450;-78
2022/01/29 02:19:33;;;;;;;123.57;62.53;;;6.80;99.90;;;;;;5137277;27;20466;-78
2022/01/29 02:22:05;;;;;;;302.70;78.33;;;6.80;99.90;;;;;;5135920;27;20482;-78
2022/01/29 02:24:33;;;;;;;229.17;78.53;;;6.80;99.90;;;;;;5137518;27;20450;-78
2022/01/29 02:27:02;;;;;;;217.97;79.03;;;6.80;99.90;;;;;;5134708;27;20534;-78
2022/01/29 02:29:33;;;;;;;297.27;82.70;;;6.80;99.90;;;;;;5117626;27;20514;-78
2022/01/29 02:32:01;;;;;;;222.93;87.37;;;6.80;99.90;;;;;;5126335;27;20859;-78
2022/01/29 02:34:31;;;;;;;205.30;75.67;;;6.80;99.90;;;;;;5137333;27;20497;-79
2022/01/29 02:37:03;;;;;;;285.97;87.20;;;6.80;99.90;;;;;;5141951;27;20466;-78
2022/01/29 02:39:31;;;;;;;178.47;85.80;;;6.80;99.90;;;;;;5141209;27;20795;-79
2022/01/29 02:42:00;;;;;;;168.60;83.00;;;6.80;99.90;;;;;;5140159;27;20922;-79
2022/01/29 02:44:30;;;;;;;132.07;67.83;;;6.80;99.90;;;;;;5140204;27;20496;-79
2022/01/29 02:47:14;;;;;;;328.53;86.27;;;6.80;99.90;;;;;;5123006;27;20487;-78
2022/01/29 02:49:43;;;;;;;179.50;68.47;;;6.80;99.90;;;;;;5138371;27;20438;-79
2022/01/29 02:52:12;;;;;;;185.00;73.47;;;6.80;99.90;;;;;;5134356;27;20520;-78
2022/01/29 02:54:40;;;;;;;177.43;71.33;;;6.80;99.90;;;;;;5116567;28;20967;-79
2022/01/29 02:57:09;;;;;;;192.77;76.93;;;6.80;99.90;;;;;;5117536;28;20463;-78
2022/01/29 02:59:37;;;;;;;203.23;80.37;;;6.80;99.90;;;;;;5118537;28;20481;-79
2022/01/29 03:02:06;;;;;;;273.87;70.67;;;6.80;99.90;;;;;;5120602;28;20463;-79
2022/01/29 03:04:35;;;;;;;195.07;68.53;;;6.80;99.90;;;;;;5120034;28;20451;-79
2022/01/29 03:07:03;;;;;;;241.40;79.53;;;6.80;99.90;;;;;;5120319;28;20500;-79
2022/01/29 03:09:33;;;;;;;168.97;68.53;;;6.90;99.90;;;;;;5117884;28;20439;-78
2022/01/29 03:12:02;;;;;;;224.90;67.30;;;6.90;99.90;;;;;;5119393;28;20455;-79
2022/01/29 03:14:30;;;;;;;313.77;81.63;;;6.90;99.90;;;;;;5121266;27;20952;-78
2022/01/29 03:16:59;;;;;;;276.97;82.80;;;6.90;99.90;;;;;;5139297;27;20467;-79
2022/01/29 03:19:27;;;;;;;223.60;76.80;;;6.90;99.90;;;;;;5141255;27;20469;-78
2022/01/29 03:21:55;;;;;;;176.20;70.73;;;6.90;99.90;;;;;;5136394;27;20494;-78
2022/01/29 03:24:24;;;;;;;261.60;74.43;;;6.90;99.90;;;;;;5115443;28;20501;-78
2022/01/29 03:26:54;;;;;;;262.80;85.80;;;6.90;99.90;;;;;;5117933;28;20526;-79
2022/01/29 03:29:22;;;;;;;193.73;73.10;;;6.90;99.90;;;;;;5115915;28;20451;-78
2022/01/29 03:31:50;;;;;;;173.33;62.30;;;6.90;99.90;;;;;;5116370;28;20451;-78
2022/01/29 03:34:18;;;;;;;262.80;69.23;;;6.90;99.90;;;;;;5122050;28;20449;-79
2022/01/29 03:36:47;;;;;;;319.70;85.30;;;6.90;99.90;;;;;;5125037;28;20884;-80
2022/01/29 03:39:15;;;;;;;173.57;60.80;;;6.90;99.90;;;;;;5139258;28;20443;-78
2022/01/29 03:41:43;;;;;;;263.27;70.93;;;6.90;99.90;;;;;;5138240;28;20462;-79
2022/01/29 03:44:13;;;;;;;303.30;75.93;;;6.90;99.90;;;;;;5117902;28;20528;-79
2022/01/29 03:46:45;;;;;;;188.10;61.13;;;6.90;99.90;;;;;;5116369;28;20460;-78
2022/01/29 03:49:13;;;;;;;318.83;71.43;;;7.00;99.90;;;;;;5118826;28;20439;-78
2022/01/29 03:51:41;;;;;;;179.97;65.53;;;7.00;99.90;;;;;;5118936;28;20523;-78
2022/01/29 03:54:10;;;;;;;294.77;62.83;;;7.00;99.90;;;;;;5118196;28;20544;-79
2022/01/29 03:56:38;;;;;;;156.63;63.50;;;7.00;99.90;;;;;;5121652;28;20960;-78
2022/01/29 03:59:07;;;;;;;144.63;65.57;;;7.00;99.90;;;;;;5138305;28;20456;-79
2022/01/29 04:01:39;;;;;;;250.10;73.07;;;7.00;99.90;;;;;;5124813;28;20570;-79
2022/01/29 04:04:07;;;;;;;172.87;67.33;;;7.00;99.90;;;;;;5120345;28;20435;-79
2022/01/29 04:06:36;;;;;;;312.17;68.40;;;7.00;99.90;;;;;;5120758;28;20455;-79
2022/01/29 04:09:06;;;;;;;235.10;65.63;;;7.00;99.90;;;;;;5119946;28;20459;-79
2022/01/29 04:11:37;;;;;;;327.97;89.53;;;7.00;99.90;;;;;;5117889;28;20505;-78
2022/01/29 04:14:13;;;;;;;251.83;71.10;;;7.10;99.90;;;;;;5139819;28;20453;-78
2022/01/29 04:16:43;;;;;;;171.03;60.70;;;7.10;99.90;;;;;;5142301;28;20438;-79
2022/01/29 04:19:12;;;;;;;208.17;74.57;;;7.10;99.90;;;;;;5137861;28;20887;-78
2022/01/29 04:22:04;;;;;;;175.27;56.90;;;7.10;99.90;;;;;;5139589;27;20459;-78
2022/01/29 04:24:32;;;;;;;175.07;65.67;;;7.10;99.90;;;;;;5143460;27;20469;-78
2022/01/29 04:27:03;;;;;;;182.73;68.67;;;7.10;99.90;;;;;;5141329;27;20468;-78
2022/01/29 04:29:41;;;;;;;257.67;76.63;;;7.10;99.90;;;;;;5122514;28;20488;-79
2022/01/29 04:32:15;;;;;;;327.00;87.60;;;7.10;99.90;;;;;;5122568;28;20440;-78
2022/01/29 04:34:43;;;;;;;243.33;63.83;;;7.10;99.90;;;;;;5124255;28;20423;-80
2022/01/29 04:37:11;;;;;;;166.17;61.80;;;7.20;99.90;;;;;;5140423;27;20473;-79
2022/01/29 04:39:40;;;;;;;249.77;79.43;;;7.20;99.90;;;;;;5142287;27;20443;-79
2022/01/29 04:42:08;;;;;;;223.97;69.70;;;7.20;99.90;;;;;;5140935;27;20833;-78
2022/01/29 04:44:36;;;;;;;197.10;65.40;;;7.20;99.90;;;;;;5139919;27;20538;-78
2022/01/29 04:47:05;;;;;;;236.80;61.50;;;7.20;99.90;;;;;;5132220;27;20474;-78
2022/01/29 04:49:42;;;;;;;184.27;61.70;;;7.20;99.90;;;;;;5120933;28;20440;-79
2022/01/29 04:52:11;;;;;;;253.67;71.23;;;7.20;99.90;;;;;;5120875;28;20546;-78
2022/01/29 04:54:39;;;;;;;304.93;86.07;;;7.20;99.90;;;;;;5123684;28;20447;-79
2022/01/29 04:57:08;;;;;;;236.93;72.17;;;7.20;99.90;;;;;;5123023;28;20490;-79
2022/01/29 04:59:36;;;;;;;207.10;62.33;;;7.20;99.90;;;;;;5121596;28;20466;-78
2022/01/29 05:02:05;;;;;;;245.80;67.13;;;7.30;99.90;;;;;;5119192;28;20468;-79
2022/01/29 05:04:34;;;;;;;216.93;71.50;;;7.30;99.90;;;;;;5123573;28;20447;-79
2022/01/29 05:07:06;;;;;;;218.67;60.20;;;7.30;99.90;;;;;;5123135;27;20471;-78
2022/01/29 05:09:36;;;;;;;322.00;85.10;;;7.30;99.90;;;;;;5120294;28;20530;-79
2022/01/29 05:12:07;;;;;;;240.20;66.97;;;7.30;99.90;;;;;;5138938;27;20442;-79
2022/01/29 05:14:42;;;;;;;195.70;66.10;;;7.30;99.90;;;;;;5142788;27;20454;-78
2022/01/29 05:28:19;;;;;;;254.70;74.10;;;7.40;99.90;;;;;;5132433;27;20623;-79
2022/01/29 05:30:47;;;;;;;267.53;81.77;;;7.40;99.90;;;;;;5137091;27;20529;-80
2022/01/29 05:33:15;;;;;;;300.77;66.60;;;7.40;99.90;;;;;;5142956;27;20451;-79
2022/01/29 05:35:45;;;;;;;143.77;61.63;;;7.40;99.90;;;;;;5142284;27;20863;-79
2022/01/29 05:38:14;;;;;;;171.67;70.33;;;7.40;99.90;;;;;;5139565;27;20557;-79
2022/01/29 05:40:46;;;;;;;184.67;60.53;;;7.40;99.90;;;;;;5145429;27;20472;-79
2022/01/29 05:43:14;;;;;;;253.17;75.27;;;7.40;99.90;;;;;;5140354;27;20473;-78
2022/01/29 05:45:43;;;;;;;175.30;55.70;;;7.50;99.90;;;;;;5138966;27;20452;-79
2022/01/29 05:48:11;;;;;;;255.50;73.27;;;7.50;99.90;;;;;;5139377;27;20462;-79
2022/01/29 05:50:39;;;;;;;212.30;72.37;;;7.50;99.90;;;;;;5140670;27;20868;-79
2022/01/29 05:53:09;;;;;;;156.13;53.63;;;7.50;99.90;;;;;;5122142;27;20971;-78
2022/01/29 05:55:41;;;;;;;166.30;56.10;;;7.50;99.90;;;;;;5121110;27;20443;-79
2022/01/29 05:58:09;;;;;;;181.60;59.93;;;7.50;99.90;;;;;;5134376;27;20484;-79
2022/01/29 06:00:37;;;;;;;225.80;66.30;;;7.60;99.90;;;;;;5133042;27;20483;-78
2022/01/29 06:03:07;;;;;;;271.57;67.87;;;7.50;99.90;;;;;;5119727;28;20471;-78
2022/01/29 06:05:36;;;;;;;224.37;64.73;;;7.60;99.90;;;;;;5121949;28;20804;-78
2022/01/29 06:08:06;;;;;;;178.67;58.10;;;7.60;99.90;;;;;;5119348;27;20475;-79
2022/01/29 06:10:36;;;;;;;228.30;61.40;;;7.60;99.90;;;;;;5121040;28;20497;-78
2022/01/29 06:13:09;;;;;;;155.87;64.70;;;7.60;99.90;;;;;;5116944;28;20456;-79
2022/01/29 06:15:40;;;;;;;266.80;66.43;;;7.60;99.90;;;;;;5101570;28;20991;-79
2022/01/29 06:18:11;;;;;;;264.37;73.13;;;7.60;99.90;;;;;;5100584;28;20456;-79
2022/01/29 06:20:40;;;;;;;261.07;67.17;;;7.60;99.90;;;;;;5095763;28;20440;-78
2022/01/29 06:23:09;;;;;;;243.27;68.50;;;7.60;99.90;;;;;;5124247;27;21062;-78
2022/01/29 06:25:40;;;;;;;263.00;69.87;;;7.60;99.90;;;;;;5139839;27;20940;-79
2022/01/29 06:28:08;;;;;;;156.37;55.30;;;7.70;99.90;;;;;;5132316;27;20502;-78
2022/01/29 06:30:37;;;;;;;287.40;64.87;;;7.70;99.90;;;;;;5133798;27;20548;-78
2022/01/29 06:33:10;;;;;;;151.53;52.07;;;7.70;99.90;;;;;;5140177;27;20983;-79
2022/01/29 06:35:40;;;;;;;270.87;72.27;;;7.70;99.90;;;;;;5137226;27;20453;-78
2022/01/29 06:38:10;;;;;;;227.80;66.33;;;7.70;99.90;;;;;;5121095;28;20565;-79
2022/01/29 06:40:41;;;;;;;321.70;73.37;;;7.70;99.90;;;;;;5123814;28;20447;-79
2022/01/29 06:43:10;;;;;;;164.43;48.20;;;7.70;99.90;;;;;;5121561;27;20480;-78
2022/01/29 06:45:41;;;;;;;148.83;60.17;;;7.70;99.90;;;;;;5140898;27;20448;-79
2022/01/29 06:48:09;;;;;;;212.07;60.53;;;7.70;99.90;;;;;;5129783;27;20839;-79
2022/01/29 06:50:38;;;;;;;147.83;50.60;;;7.70;99.90;;;;;;5125205;27;20446;-78
2022/01/29 06:53:08;;;;;;;147.13;44.33;;;7.70;99.90;;;;;;5120515;28;20500;-79
2022/01/29 06:55:37;;;;;;;248.37;55.73;;;7.70;99.90;;;;;;5126389;28;20425;-79
2022/01/29 06:58:06;;;;;;;173.70;56.73;;;7.70;99.90;;;;;;5129140;28;20454;-78
2022/01/29 07:00:55;;;;;;;115.47;49.53;;;7.80;99.90;;;;;;5136213;27;20992;-78
2022/01/29 07:03:23;;;;;;;234.63;53.13;;;7.70;99.90;;;;;;5148510;27;20552;-79
2022/01/29 07:05:51;;;;;;;192.10;64.17;;;7.70;99.90;;;;;;5140770;27;20445;-79
2022/01/29 07:08:20;;;;;;;193.53;52.40;;;7.70;99.90;;;;;;5140723;27;20464;-78
2022/01/29 07:10:49;;;;;;;226.37;60.60;;;7.80;99.90;;;;;;5139152;27;20462;-78
2022/01/29 07:13:21;;;;;;;170.90;49.13;;;7.80;99.90;;;;;;5133171;27;20455;-78
2022/01/29 07:15:51;;;;;;;248.10;54.00;;;7.80;99.90;;;;;;5140850;27;20448;-79
2022/01/29 07:18:19;;;;;;;195.87;48.87;;;7.80;99.90;;;;;;5140141;27;20466;-79
2022/01/29 07:20:48;;;;;;;158.50;44.80;;;7.80;99.90;;;;;;5133620;27;20449;-79
2022/01/29 07:23:16;;;;;;;217.23;59.33;;;7.80;99.90;;;;;;5121854;27;20541;-79
2022/01/29 07:25:44;;;;;;;170.30;44.37;;;7.80;99.90;;;;;;5120495;28;20444;-79
2022/01/29 07:28:12;;;;;;;237.67;56.83;;;7.80;99.90;;;;;;5133070;27;21063;-79
2022/01/29 07:30:43;;;;;;;193.27;45.30;;;7.80;99.90;;;;;;5139116;27;20471;-79
2022/01/29 07:33:12;;;;;;;225.27;53.40;;;7.80;99.90;;;;;;5141911;27;20466;-79
2022/01/29 07:35:40;;;;;;;183.60;53.63;;;7.80;99.90;;;;;;5141090;27;20475;-79
2022/01/29 07:38:08;;;;;;;214.93;53.40;;;7.90;99.90;;;;;;5117769;28;20542;-78
2022/01/29 07:40:37;;;;;;;181.53;45.17;;;7.90;99.90;;;;;;5140174;28;21030;-79
2022/01/29 07:43:05;;;;;;;303.93;59.47;;;7.90;99.90;;;;;;5134282;28;20500;-79
2022/01/29 07:45:33;;;;;;;143.13;43.83;;;8.00;99.90;;;;;;5120641;28;20448;-79
2022/01/29 07:48:04;;;;;;;149.77;42.00;;;7.90;99.90;;;;;;5119795;28;20468;-79
2022/01/29 07:50:33;;;;;;;161.97;49.03;;;7.90;99.90;;;;;;5121110;28;20422;-79
2022/01/29 07:53:01;;;;;;;208.27;52.40;;;7.90;99.90;;;;;;5121337;28;20817;-80
2022/01/29 07:55:31;;;;;;;187.73;47.33;;;7.90;99.90;;;;;;5120010;28;20971;-79
2022/01/29 07:57:59;;;;;;;130.97;44.47;;;8.00;99.90;;;;;;5120513;28;20476;-79
2022/01/29 08:00:28;;;;;;;71.80;41.93;;;8.00;99.90;;;;;;5123491;28;20449;-78
2022/01/29 08:02:56;;;;;;;144.30;38.17;;;8.00;99.90;;;;;;5124661;27;20487;-79
2022/01/29 08:05:29;;;;;;;253.57;63.63;;;8.00;99.90;;;;;;5129773;27;20449;-79
2022/01/29 08:07:58;;;;;;;298.87;57.50;;;8.00;99.90;;;;;;5145043;27;20512;-79
2022/01/29 08:10:26;;;;;;;194.93;48.10;;;8.00;99.90;;;;;;5105377;28;20456;-79
2022/01/29 08:12:55;;;;;;;297.67;59.00;;;8.00;99.90;;;;;;5114763;27;20436;-78
2022/01/29 08:15:23;;;;;;;286.60;49.73;;;8.00;99.90;;;;;;5143288;27;20476;-79
2022/01/29 08:17:51;;;;;;;201.77;48.23;;;8.10;99.90;;;;;;5145995;27;20466;-79
2022/01/29 08:20:20;;;;;;;197.83;44.93;;;8.10;99.90;;;;;;5145808;27;20436;-79
2022/01/29 08:22:49;;;;;;;161.50;36.00;;;8.10;99.90;;;;;;5128732;27;20479;-79
2022/01/29 08:25:18;;;;;;;141.50;43.87;;;8.10;99.90;;;;;;5124036;28;20525;-79
2022/01/29 08:27:46;;;;;;;134.33;44.93;;;8.10;99.90;;;;;;5124332;28;20459;-79
2022/01/29 08:30:15;;;;;;;207.63;46.13;;;8.10;99.90;;;;;;5133554;27;20458;-79
2022/01/29 08:32:43;;;;;;;291.23;53.67;;;8.10;99.90;;;;;;5145889;27;20441;-79
2022/01/29 08:35:14;;;;;;;105.77;34.93;;;8.20;99.90;;;;;;5144098;27;20804;-79
2022/01/29 08:37:43;;;;;;;218.43;43.80;;;8.20;99.90;;;;;;5143378;27;20504;-79
2022/01/29 08:40:13;;;;;;;117.93;39.87;;;8.20;99.90;;;;;;5141437;27;21031;-79
2022/01/29 08:42:42;;;;;;;147.40;38.60;;;8.20;99.90;;;;;;5135934;27;20449;-78
2022/01/29 08:45:13;;;;;;;96.20;37.43;;;8.20;99.90;;;;;;5123047;28;20443;-79
2022/01/29 08:47:41;;;;;;;200.50;46.97;;;8.20;99.90;;;;;;5123482;28;20475;-80
2022/01/29 08:50:10;;;;;;;140.87;34.10;;;8.20;99.90;;;;;;5125331;28;20454;-79
2022/01/29 08:52:38;;;;;;;197.00;37.37;;;8.20;99.90;;;;;;5127209;27;20471;-79
2022/01/29 08:55:09;;;;;;;359.77;56.10;;;8.30;99.90;;;;;;5128022;27;20546;-79
2022/01/29 08:57:39;;;;;;;244.23;36.77;;;8.30;99.90;;;;;;5143115;27;20474;-79
2022/01/29 09:00:10;;;;;;;111.57;33.53;;;8.30;99.90;;;;;;5143397;27;20453;-79
2022/01/29 09:02:38;;;;;;;247.03;40.60;;;8.30;99.90;;;;;;5129554;27;20462;-79
2022/01/29 09:05:07;;;;;;;176.70;39.33;;;8.30;99.90;;;;;;5123990;27;20500;-79
2022/01/29 09:07:36;;;;;;;209.93;44.13;;;8.30;99.90;;;;;;5142532;27;20476;-79
2022/01/29 09:10:05;;;;;;;305.57;48.07;;;8.40;99.90;;;;;;5128548;27;20548;-79
2022/01/29 09:12:33;;;;;;;268.20;50.43;;;8.40;99.90;;;;;;5122878;28;20614;-79
2022/01/29 09:15:03;;;;;;;225.47;40.80;;;8.40;99.90;;;;;;5123436;28;20795;-79
2022/01/29 09:17:32;;;;;;;291.17;44.93;;;8.40;99.90;;;;;;5123515;28;20458;-79
2022/01/29 09:20:00;;;;;;;222.80;44.37;;;8.40;99.90;;;;;;5123488;28;20519;-80
2022/01/29 09:22:28;;;;;;;301.80;56.30;;;8.50;99.90;;;;;;5123860;28;20480;-79
2022/01/29 09:24:57;;;;;;;290.87;51.23;;;8.50;99.90;;;;;;5122535;28;20835;-79
2022/01/29 09:27:25;;;;;;;170.93;32.47;;;8.50;99.90;;;;;;5123587;27;20511;-79
2022/01/29 09:29:56;;;;;;;290.13;49.83;;;8.50;99.90;;;;;;5144465;27;21008;-79
2022/01/29 09:32:25;;;;;;;222.50;39.93;;;8.60;99.90;;;;;;5144722;27;20445;-79
2022/01/29 09:34:54;;;;;;;307.07;54.90;;;8.60;99.90;;;;;;5141403;27;20462;-79
2022/01/29 09:37:22;;;;;;;268.00;48.33;;;8.60;99.90;;;;;;5123033;28;20542;-79
2022/01/29 09:39:55;;;;;;;468.57;62.97;;;8.70;99.90;;;;;;5123542;28;20441;-79
2022/01/29 09:42:23;;;;;;;270.07;49.57;;;8.70;99.90;;;;;;5124408;27;20525;-78
2022/01/29 09:44:52;;;;;;;171.63;40.27;;;8.80;99.90;;;;;;5120458;28;20915;-79
2022/01/29 09:47:23;;;;;;;303.63;57.10;;;8.80;99.90;;;;;;5120670;28;20471;-79
2022/01/29 09:49:53;;;;;;;241.40;42.33;;;8.80;99.90;;;;;;5124524;27;20954;-78
2022/01/29 09:52:22;;;;;;;273.60;44.93;;;8.80;99.90;;;;;;5140464;27;20476;-79
2022/01/29 09:54:50;;;;;;;423.40;72.73;;;8.80;99.90;;;;;;5144196;27;20450;-79
2022/01/29 09:57:21;;;;;;;205.23;40.77;;;8.90;99.90;;;;;;5142625;27;20478;-79
2022/01/29 09:59:50;;;;;;;196.70;35.47;;;8.90;99.90;;;;;;5142130;27;20533;-79
2022/01/29 10:02:20;;;;;;;238.60;41.40;;;8.90;99.90;;;;;;5142580;27;20957;-78
2022/01/29 10:04:50;;;;;;;195.77;39.87;;;9.00;99.90;;;;;;5144043;27;20461;-79
2022/01/29 10:07:25;;;;;;;287.43;63.03;;;9.00;99.90;;;;;;5132310;27;20476;-78
2022/01/29 10:09:53;;;;;;;198.63;44.63;;;9.00;99.90;;;;;;5123498;28;20507;-80
2022/01/29 10:12:26;;;;;;;268.73;55.87;;;9.00;99.90;;;;;;5142952;27;20446;-80
2022/01/29 10:14:58;;;;;;;196.60;45.90;;;9.10;99.90;;;;;;5139082;27;20427;-78
2022/01/29 10:17:39;;;;;;;336.07;57.00;;;9.00;99.90;;;;;;5141719;27;20466;-79
2022/01/29 10:20:10;;;;;;;183.83;49.40;;;9.10;99.90;;;;;;5142279;27;20417;-79
2022/01/29 10:22:39;;;;;;;199.40;43.00;;;9.10;99.90;;;;;;5139389;27;20487;-78
2022/01/29 10:25:13;;;;;;;382.60;63.93;;;9.10;99.90;;;;;;5123812;27;20459;-79
2022/01/29 10:28:11;;;;;;;381.27;66.73;;;9.20;99.90;;;;;;5135689;27;20478;-79
2022/01/29 10:30:59;;;;;;;396.97;54.73;;;9.10;99.90;;;;;;5139822;27;20540;-79
2022/01/29 10:33:30;;;;;;;211.87;39.70;;;9.20;99.90;;;;;;5140572;27;20513;-79
2022/01/29 10:36:01;;;;;;;225.40;48.80;;;9.20;99.90;;;;;;5140083;27;20450;-79
2022/01/29 10:38:45;;;;;;;234.20;54.67;;;9.20;99.90;;;;;;5139413;27;20573;-78
2022/01/29 10:41:23;;;;;;;356.03;70.23;;;9.20;99.90;;;;;;5145364;27;20449;-79
2022/01/29 10:44:09;;;;;;;147.47;30.93;;;9.20;99.90;;;;;;5135593;27;20451;-78
2022/01/29 10:46:44;;;;;;;340.57;73.47;;;9.20;99.90;;;;;;5130765;28;20431;-79
2022/01/29 10:49:24;;;;;;;314.30;44.57;;;9.20;99.90;;;;;;5148220;27;20478;-78
2022/01/29 10:51:56;;;;;;;395.23;51.17;;;9.20;99.90;;;;;;5134021;27;20455;-78
2022/01/29 10:54:25;;;;;;;353.87;65.07;;;9.30;99.90;;;;;;5119515;28;20454;-79
2022/01/29 10:57:01;;;;;;;556.80;72.37;;;9.30;99.90;;;;;;5119277;28;20849;-78
2022/01/29 10:59:33;;;;;;;369.67;56.53;;;9.30;99.90;;;;;;5118148;28;20513;-78
2022/01/29 11:02:04;;;;;;;305.77;38.90;;;9.30;99.90;;;;;;5119654;28;20496;-78
2022/01/29 11:04:40;;;;;;;300.73;50.20;;;9.30;99.90;;;;;;5118991;28;20502;-79
2022/01/29 11:07:14;;;;;;;201.10;39.60;;;9.40;99.90;;;;;;5135168;27;20514;-78
2022/01/29 11:09:44;;;;;;;246.70;48.67;;;9.40;99.90;;;;;;5118598;28;20469;-78
2022/01/29 11:12:17;;;;;;;296.43;51.77;;;9.40;99.90;;;;;;5118297;28;20431;-78
2022/01/29 11:14:48;;;;;;;345.23;53.00;;;9.50;99.90;;;;;;5118598;28;20431;-79
2022/01/29 11:17:18;;;;;;;367.23;59.57;;;9.50;99.90;;;;;;5118108;28;20507;-78
2022/01/29 11:19:47;;;;;;;278.63;40.87;;;9.50;99.90;;;;;;5119285;28;20819;-79
2022/01/29 11:22:21;;;;;;;242.73;41.37;;;9.50;99.90;;;;;;5120117;28;20484;-79
2022/01/29 11:24:55;;;;;;;301.60;52.03;;;9.50;99.90;;;;;;5118738;28;20502;-79
2022/01/29 11:27:25;;;;;;;250.03;40.33;;;9.50;99.90;;;;;;5138110;27;20588;-79
2022/01/29 11:30:11;;;;;;;377.97;66.23;;;9.60;99.90;;;;;;5139963;27;20453;-79
2022/01/29 11:32:42;;;;;;;386.70;48.97;;;9.60;99.90;;;;;;5138118;27;20489;-78
2022/01/29 11:35:19;;;;;;;496.93;64.30;;;9.60;99.90;;;;;;5139872;27;20423;-78
2022/01/29 11:37:57;;;;;;;376.60;74.03;;;9.60;99.90;;;;;;5139873;28;20508;-78
2022/01/29 11:40:31;;;;;;;437.43;50.63;;;9.60;99.90;;;;;;5134575;28;20876;-78
2022/01/29 11:43:06;;;;;;;389.60;50.93;;;9.60;99.90;;;;;;5123383;28;20819;-79
2022/01/29 11:45:44;;;;;;;216.03;37.90;;;9.70;99.90;;;;;;5097680;28;20545;-79
2022/01/29 11:48:49;;;;;;;266.00;59.30;;;9.70;99.90;;;;;;5099036;28;20468;-79
2022/01/29 11:51:45;;;;;;;432.07;68.67;;;9.70;99.90;;;;;;5097206;28;20492;-78
2022/01/29 11:54:51;;;;;;;262.20;45.50;;;9.70;99.90;;;;;;5115167;28;20466;-78
2022/01/29 11:57:22;;;;;;;420.33;51.43;;;9.80;99.90;;;;;;5097324;28;20989;-78
2022/01/29 11:59:50;;;;;;;324.90;60.00;;;9.70;99.90;;;;;;5097242;28;20460;-79
2022/01/29 12:02:40;;;;;;;266.67;52.90;;;9.80;99.90;;;;;;5097378;28;20468;-79
2022/01/29 12:05:31;;;;;;;325.90;59.77;;;9.80;99.90;;;;;;5114464;28;20483;-78
2022/01/29 12:08:15;;;;;;;201.70;46.87;;;9.80;99.90;;;;;;5114343;28;20543;-79
2022/01/29 12:28:10;;;;;;;353.23;56.40;;;10.00;99.90;;;;;;5098583;28;20802;-78
2022/01/29 12:30:40;;;;;;;236.43;60.37;;;10.10;99.90;;;;;;5117661;28;20455;-79
2022/01/29 12:33:10;;;;;;;377.50;83.80;;;10.10;99.90;;;;;;5126485;28;20495;-79
2022/01/29 12:35:43;;;;;;;364.23;89.97;;;10.10;99.90;;;;;;5138928;28;20454;-78
2022/01/29 12:38:14;;;;;;;34.37;26.07;;;10.10;99.90;;;;;;5138899;28;20528;-78
2022/01/29 12:40:51;;;;;;;201.20;83.43;;;10.10;99.90;;;;;;5139591;28;20545;-79
2022/01/29 12:43:30;;;;;;;234.17;76.10;;;10.10;99.90;;;;;;5132016;27;20478;-78
2022/01/29 12:46:12;;;;;;;179.80;56.27;;;10.10;99.90;;;;;;5121407;28;20532;-79
2022/01/29 12:48:45;;;;;;;502.17;62.87;;;10.20;99.90;;;;;;5121067;28;20611;-79
2022/01/29 12:51:13;;;;;;;203.80;65.53;;;10.20;99.90;;;;;;5121464;28;20443;-79
2022/01/29 12:53:41;;;;;;;271.50;73.03;;;10.20;99.90;;;;;;5120852;28;20631;-79
2022/01/29 12:56:11;;;;;;;118.60;54.40;;;10.20;99.90;;;;;;5121619;28;20467;-78
2022/01/29 12:58:43;;;;;;;334.80;97.63;;;10.20;99.90;;;;;;5121630;27;20479;-78
2022/01/29 13:01:14;;;;;;;789.87;182.40;;;10.20;99.90;;;;;;5120684;28;20440;-79
2022/01/29 13:03:43;;;;;;;311.50;115.67;;;10.30;99.90;;;;;;5121044;28;20444;-78
2022/01/29 13:06:13;;;;;;;1573.50;226.40;;;10.30;99.90;;;;;;5120406;28;20463;-79
2022/01/29 13:08:41;;;;;;;148.13;83.57;;;10.30;99.90;;;;;;5121082;28;20474;-79
2022/01/29 13:11:23;;;;;;;690.07;160.60;;;10.30;99.90;;;;;;5120933;28;20530;-78